createdAt,value
2022-09-28T03:46:33.604Z,2.03
2022-09-28T03:49:01.420Z,1.80
2022-09-28T03:51:28.119Z,4.20
2022-09-28T03:53:54.867Z,2.85
2022-09-28T03:56:21.573Z,3.33
2022-09-28T03:58:48.426Z,2.38
2022-09-28T04:01:18.723Z,2.13
2022-09-28T04:03:46.262Z,3.35
2022-09-28T04:06:13.864Z,2.88
2022-09-28T04:08:40.658Z,2.22
2022-09-28T04:11:10.514Z,2.45
2022-09-28T04:13:37.307Z,2.70
2022-09-28T04:16:05.051Z,3.03
2022-09-28T04:18:33.308Z,3.10
2022-09-28T04:21:03.418Z,2.70
2022-09-28T04:23:30.501Z,2.00
2022-09-28T04:25:57.420Z,2.35
2022-09-28T04:28:43.030Z,2.65
2022-09-28T04:31:13.413Z,1.52
2022-09-28T04:33:40.182Z,2.20
2022-09-28T04:36:07.369Z,2.05
2022-09-28T04:38:51.744Z,2.25
2022-09-28T04:41:19.955Z,2.20
2022-09-28T04:43:47.493Z,2.35
2022-09-28T04:46:14.906Z,2.10
2022-09-28T04:48:42.005Z,2.60
2022-09-28T04:51:08.785Z,2.25
2022-09-28T04:53:35.593Z,3.38
2022-09-28T04:56:05.039Z,2.00
2022-09-28T04:58:32.446Z,2.03
2022-09-28T05:01:05.924Z,2.78
2022-09-28T05:03:33.439Z,1.80
2022-09-28T05:06:00.187Z,2.15
2022-09-28T05:08:27.534Z,3.97
2022-09-28T05:10:59.639Z,2.22
2022-09-28T05:13:27.388Z,3.10
2022-09-28T05:15:58.189Z,3.08
2022-09-28T05:18:27.542Z,2.03
2022-09-28T05:20:54.206Z,1.50
2022-09-28T05:23:20.938Z,3.47
2022-09-28T05:25:47.696Z,1.95
2022-09-28T05:28:14.353Z,2.30
2022-09-28T05:30:41.053Z,3.25
2022-09-28T05:33:08.926Z,2.75
2022-09-28T05:35:36.549Z,2.33
2022-09-28T05:38:05.462Z,2.03
2022-09-28T05:40:32.566Z,3.80
2022-09-28T05:43:01.322Z,3.10
2022-09-28T05:45:29.446Z,2.05
2022-09-28T05:47:56.637Z,2.25
2022-09-28T05:50:23.888Z,2.25
2022-09-28T05:53:01.450Z,2.25
2022-09-28T05:55:28.581Z,3.20
2022-09-28T05:57:59.375Z,1.88
2022-09-28T06:00:27.749Z,1.35
2022-09-28T06:03:06.711Z,2.63
2022-09-28T06:05:36.231Z,2.55
2022-09-28T06:08:05.070Z,2.13
2022-09-28T06:10:32.828Z,1.67
2022-09-28T06:12:59.785Z,2.13
2022-09-28T06:15:29.472Z,1.15
2022-09-28T06:18:07.622Z,1.40
2022-09-28T06:20:36.889Z,0.73
2022-09-28T06:23:04.190Z,1.27
2022-09-28T06:25:30.849Z,2.20
2022-09-28T06:28:03.149Z,1.83
2022-09-28T06:30:33.039Z,0.88
2022-09-28T06:33:01.774Z,0.90
2022-09-28T06:35:33.080Z,0.95
2022-09-28T06:38:00.545Z,1.25
2022-09-28T06:40:28.468Z,1.85
2022-09-28T06:43:10.399Z,1.08
2022-09-28T06:45:38.286Z,0.77
2022-09-28T06:48:06.249Z,3.47
2022-09-28T06:50:41.866Z,1.17
2022-09-28T06:53:11.842Z,1.05
2022-09-28T06:55:48.252Z,2.33
2022-09-28T06:58:17.458Z,1.00
2022-09-28T07:00:44.239Z,1.30
2022-09-28T07:03:13.512Z,0.70
2022-09-28T07:05:44.993Z,1.27
2022-09-28T07:08:12.206Z,0.80
2022-09-28T07:10:44.030Z,1.05
2022-09-28T07:13:34.946Z,18.23
2022-09-28T07:16:01.879Z,0.75
2022-09-28T07:18:29.899Z,1.20
2022-09-28T07:20:57.487Z,0.52
2022-09-28T07:23:26.218Z,1.10
2022-09-28T07:25:53.416Z,0.98
2022-09-28T07:28:21.093Z,1.50
2022-09-28T07:30:48.205Z,1.35
2022-09-28T07:33:15.994Z,1.02
2022-09-28T07:35:50.755Z,1.52
2022-09-28T07:38:17.497Z,1.23
2022-09-28T07:41:02.978Z,1.50
2022-09-28T07:43:29.667Z,1.80
2022-09-28T07:45:56.896Z,1.05
2022-09-28T07:48:23.861Z,0.65
2022-09-28T07:50:52.176Z,1.50
2022-09-28T07:53:20.182Z,0.77
2022-09-28T07:55:53.989Z,1.25
2022-09-28T07:58:20.944Z,0.57
2022-09-28T08:00:49.055Z,1.40
2022-09-28T08:03:17.339Z,1.27
2022-09-28T08:05:44.396Z,0.90
2022-09-28T08:08:11.110Z,1.17
2022-09-28T08:10:37.887Z,0.73
2022-09-28T08:13:06.487Z,1.48
2022-09-28T08:15:36.924Z,0.68
2022-09-28T08:18:04.405Z,1.40
2022-09-28T08:20:51.619Z,0.65
2022-09-28T08:23:18.749Z,1.30
2022-09-28T08:25:49.561Z,1.90
2022-09-28T08:28:17.597Z,3.58
2022-09-28T08:30:45.665Z,4.97
2022-09-28T08:33:17.891Z,4.32
2022-09-28T08:35:46.744Z,1.45
2022-09-28T08:38:13.934Z,0.88
2022-09-28T08:41:16.039Z,1.60
2022-09-28T08:44:06.158Z,1.33
2022-09-28T08:46:38.699Z,2.45
2022-09-28T08:49:32.479Z,1.90
2022-09-28T08:52:13.504Z,3.88
2022-09-28T08:54:58.780Z,6.80
2022-09-28T08:57:55.939Z,4.22
2022-09-28T09:00:49.092Z,1.00
2022-09-28T09:03:31.954Z,2.05
2022-09-28T09:06:09.991Z,3.13
2022-09-28T09:09:07.947Z,1.08
2022-09-28T09:11:50.070Z,3.30
2022-09-28T09:14:27.717Z,2.65
2022-09-28T09:17:06.855Z,2.08
2022-09-28T09:19:58.961Z,1.85
2022-09-28T09:22:39.258Z,1.73
2022-09-28T09:25:29.938Z,1.42
2022-09-28T09:28:23.072Z,3.90
2022-09-28T09:31:27.343Z,3.92
2022-09-28T09:34:39.058Z,3.88
2022-09-28T09:37:34.561Z,2.67
2022-09-28T09:40:20.013Z,3.22
2022-09-28T09:43:08.307Z,3.03
2022-09-28T09:45:46.803Z,1.45
2022-09-28T09:48:44.334Z,4.85
2022-09-28T09:51:18.649Z,4.45
2022-09-28T09:53:51.850Z,4.50
2022-09-28T09:56:31.481Z,3.20
2022-09-28T09:59:33.936Z,5.32
2022-09-28T10:02:21.192Z,2.28
2022-09-28T10:04:49.490Z,5.05
2022-09-28T10:07:24.657Z,2.30
2022-09-28T10:09:55.683Z,2.55
2022-09-28T10:12:23.511Z,2.90
2022-09-28T10:14:50.594Z,2.97
2022-09-28T10:17:19.997Z,2.75
2022-09-28T10:19:46.728Z,2.25
2022-09-28T10:22:19.638Z,3.78
2022-09-28T10:24:49.899Z,1.52
2022-09-28T10:27:33.644Z,2.75
2022-09-28T10:30:13.092Z,2.15
2022-09-28T10:32:44.768Z,2.25
2022-09-28T10:35:40.954Z,3.72
2022-09-28T10:38:19.997Z,1.60
2022-09-28T10:40:51.681Z,4.03
2022-09-28T10:44:05.938Z,6.75
2022-09-28T10:46:38.359Z,4.72
2022-09-28T10:49:13.402Z,2.40
2022-09-28T10:51:49.690Z,2.58
2022-09-28T10:54:22.007Z,8.63
2022-09-28T10:56:50.498Z,3.42
2022-09-28T10:59:30.356Z,1.20
2022-09-28T11:02:00.167Z,2.80
2022-09-28T11:04:29.575Z,2.00
2022-09-28T11:09:41.415Z,2.22
2022-09-28T11:12:15.679Z,1.30
2022-09-28T11:14:43.762Z,1.77
2022-09-28T11:17:29.662Z,0.75
2022-09-28T11:19:59.166Z,1.48
2022-09-28T11:22:36.364Z,1.77
2022-09-28T11:25:18.034Z,1.40
2022-09-28T11:27:53.619Z,3.33
2022-09-28T11:30:26.164Z,3.17
2022-09-28T11:32:56.374Z,5.05
2022-09-28T11:35:29.990Z,2.78
2022-09-28T11:41:04.114Z,3.65
2022-09-28T11:44:07.998Z,4.97
2022-09-28T11:46:40.570Z,3.50
2022-09-28T11:49:29.093Z,3.08
2022-09-28T11:51:59.218Z,6.13
2022-09-28T11:54:36.224Z,26.45
2022-09-28T11:57:05.133Z,8.18
2022-09-28T11:59:37.706Z,4.65
2022-09-28T12:02:18.904Z,10.02
2022-09-28T12:04:52.210Z,10.30
2022-09-28T12:07:31.360Z,2.60
2022-09-28T12:10:21.910Z,1.85
2022-09-28T12:12:58.725Z,2.08
2022-09-28T12:15:47.186Z,5.18
2022-09-28T12:21:53.068Z,1.55
2022-09-28T12:24:27.262Z,0.77
2022-09-28T12:27:04.793Z,1.60
2022-09-28T12:30:02.180Z,1.33
2022-09-28T12:32:41.834Z,1.63
2022-09-28T12:35:23.928Z,1.30
2022-09-28T12:38:15.668Z,1.35
2022-09-28T12:41:19.807Z,2.53
2022-09-28T12:43:58.500Z,6.40
2022-09-28T12:46:45.969Z,14.18
2022-09-28T12:52:52.086Z,1.30
2022-09-28T12:55:56.214Z,1.52
2022-09-28T12:59:13.022Z,1.60
2022-09-28T13:01:48.538Z,2.40
2022-09-28T13:04:27.270Z,2.53
2022-09-28T13:07:09.062Z,1.25
2022-09-28T13:10:17.154Z,7.43
2022-09-28T13:13:04.042Z,29.35
2022-09-28T13:15:56.845Z,12.13
2022-09-28T13:18:53.379Z,38.60
2022-09-28T13:21:40.862Z,28.23
2022-09-28T13:24:31.121Z,6.25
2022-09-28T13:27:05.222Z,5.80
2022-09-28T13:29:34.564Z,5.25
2022-09-28T13:32:03.231Z,4.78
2022-09-28T13:34:33.400Z,4.15
2022-09-28T13:37:19.794Z,4.47
2022-09-28T13:39:53.121Z,2.75
2022-09-28T13:42:29.288Z,3.58
2022-09-28T13:45:04.489Z,1.83
2022-09-28T13:47:52.424Z,2.85
2022-09-28T13:50:19.031Z,4.30
2022-09-28T13:52:49.425Z,3.58
2022-09-28T13:55:32.802Z,4.18
2022-09-28T13:58:14.186Z,5.88
2022-09-28T14:00:51.562Z,4.53
2022-09-28T14:03:41.038Z,2.30
2022-09-28T14:06:22.749Z,2.25
2022-09-28T14:08:52.422Z,2.15
2022-09-28T14:11:24.962Z,3.50
2022-09-28T14:14:11.810Z,4.72
2022-09-28T14:16:40.286Z,3.83
2022-09-28T14:19:13.255Z,21.58
2022-09-28T14:21:45.702Z,10.15
2022-09-28T14:24:30.888Z,5.57
2022-09-28T14:27:08.593Z,3.60
2022-09-28T14:29:38.353Z,6.78
2022-09-28T14:32:06.061Z,3.80
2022-09-28T14:34:45.260Z,2.83
2022-09-28T14:37:56.098Z,2.95
2022-09-28T14:40:49.928Z,2.42
2022-09-28T14:43:34.857Z,1.55
2022-09-28T14:46:23.155Z,1.00
2022-09-28T14:49:03.490Z,1.27
2022-09-28T14:51:30.196Z,1.10
2022-09-28T14:54:02.565Z,1.50
2022-09-28T14:56:38.129Z,2.08
2022-09-28T14:59:07.174Z,2.45
2022-09-28T15:01:36.051Z,0.88
2022-09-28T15:04:08.672Z,3.25
2022-09-28T15:06:49.420Z,3.33
2022-09-28T15:09:35.898Z,2.60
2022-09-28T15:12:18.055Z,2.55
2022-09-28T15:15:06.412Z,3.53
2022-09-28T15:17:39.510Z,1.67
2022-09-28T15:20:21.253Z,1.85
2022-09-28T15:22:49.637Z,22.23
2022-09-28T15:25:21.584Z,5.55
2022-09-28T15:27:54.239Z,4.07
2022-09-28T15:30:23.272Z,3.53
2022-09-28T15:32:50.984Z,2.83
2022-09-28T15:35:22.656Z,1.20
2022-09-28T15:37:53.221Z,2.67
2022-09-28T15:40:33.389Z,1.70
2022-09-28T15:43:00.465Z,3.33
2022-09-28T15:45:38.428Z,4.40
2022-09-28T15:48:40.706Z,2.20
2022-09-28T15:51:12.014Z,2.88
2022-09-28T15:54:09.287Z,2.70
2022-09-28T15:56:50.881Z,2.53
2022-09-28T15:59:28.058Z,2.15
2022-09-28T16:02:15.707Z,3.47
2022-09-28T16:04:55.158Z,3.90
2022-09-28T16:07:29.002Z,2.50
2022-09-28T16:10:12.298Z,2.55
2022-09-28T16:13:11.956Z,3.47
2022-09-28T16:15:39.311Z,5.07
2022-09-28T16:18:20.633Z,6.15
2022-09-28T16:20:52.488Z,6.18
2022-09-28T16:23:24.151Z,5.50
2022-09-28T16:26:03.852Z,3.00
2022-09-28T16:28:36.057Z,4.88
2022-09-28T16:31:27.888Z,3.55
2022-09-28T16:33:56.723Z,4.90
2022-09-28T16:36:27.371Z,7.70
2022-09-28T16:38:54.965Z,4.65
2022-09-28T16:41:24.978Z,3.58
2022-09-28T16:43:56.374Z,4.80
2022-09-28T16:46:29.788Z,2.90
2022-09-28T16:48:56.672Z,2.08
2022-09-28T16:51:23.732Z,2.38
2022-09-28T16:54:09.162Z,3.53
2022-09-28T16:56:36.798Z,1.60
2022-09-28T16:59:04.371Z,1.85
2022-09-28T17:01:31.451Z,1.67
2022-09-28T17:03:58.241Z,1.55
2022-09-28T17:06:25.446Z,1.08
2022-09-28T17:08:54.226Z,1.27
2022-09-28T17:11:24.479Z,2.70
2022-09-28T17:13:52.131Z,1.98
2022-09-28T17:16:37.139Z,1.77
2022-09-28T17:19:19.514Z,1.60
2022-09-28T17:21:47.253Z,2.05
2022-09-28T17:24:13.921Z,2.90
2022-09-28T17:26:42.276Z,3.70
2022-09-28T17:29:14.397Z,2.15
2022-09-28T17:31:43.068Z,2.72
2022-09-28T17:34:11.447Z,2.28
2022-09-28T17:36:38.458Z,3.03
2022-09-28T17:39:06.642Z,4.57
2022-09-28T17:41:34.231Z,4.40
2022-09-28T17:44:02.946Z,3.10
2022-09-28T17:46:34.880Z,4.95
2022-09-28T17:49:03.425Z,5.88
2022-09-28T17:51:33.585Z,4.43
2022-09-28T17:54:01.136Z,4.82
2022-09-28T17:56:32.106Z,5.38
2022-09-28T17:59:01.580Z,3.80
2022-09-28T18:01:33.856Z,5.25
2022-09-28T18:04:05.647Z,5.07
2022-09-28T18:06:33.750Z,5.22
2022-09-28T18:09:02.831Z,3.28
2022-09-28T18:11:30.417Z,4.82
2022-09-28T18:13:57.183Z,3.85
2022-09-28T18:16:24.234Z,4.18
2022-09-28T18:18:50.970Z,4.40
2022-09-28T18:21:17.802Z,3.95
2022-09-28T18:23:44.473Z,4.50
2022-09-28T18:26:15.178Z,4.20
2022-09-28T18:28:43.033Z,4.78
2022-09-28T18:31:12.278Z,4.47
2022-09-28T18:33:39.593Z,4.32
2022-09-28T18:36:07.786Z,3.83
2022-09-28T18:38:38.338Z,3.72
2022-09-28T18:41:15.480Z,3.60
2022-09-28T18:43:43.382Z,3.13
2022-09-28T18:46:11.398Z,2.80
2022-09-28T18:48:38.475Z,3.65
2022-09-28T18:51:09.196Z,3.92
2022-09-28T18:53:35.974Z,4.45
2022-09-28T18:56:08.064Z,4.57
2022-09-28T18:58:36.615Z,4.50
2022-09-28T19:04:06.149Z,4.78
2022-09-28T19:06:34.327Z,22.48
2022-09-28T19:09:01.486Z,7.72
2022-09-28T19:11:28.639Z,6.45
2022-09-28T19:13:56.556Z,4.45
2022-09-28T19:16:28.669Z,5.40
2022-09-28T19:18:58.918Z,5.13
2022-09-28T19:21:25.588Z,6.53
2022-09-28T19:23:55.153Z,6.18
2022-09-28T19:26:25.413Z,6.72
2022-09-28T19:28:52.196Z,6.88
2022-09-28T19:31:19.540Z,8.30
2022-09-28T19:33:46.714Z,7.40
2022-09-28T19:36:18.199Z,7.57
2022-09-28T19:38:45.576Z,9.18
2022-09-28T19:41:39.510Z,9.90
2022-09-28T19:44:27.133Z,9.15
2022-09-28T19:46:55.166Z,9.27
2022-09-28T19:49:22.825Z,8.68
2022-09-28T19:52:11.520Z,9.63
2022-09-28T19:54:38.751Z,6.32
2022-09-28T19:57:07.740Z,5.70
2022-09-28T19:59:36.395Z,6.32
2022-09-28T20:02:03.538Z,7.45
2022-09-28T20:04:30.393Z,8.07
2022-09-28T20:06:57.080Z,7.25
2022-09-28T20:09:23.810Z,7.78
2022-09-28T20:11:51.799Z,7.68
2022-09-28T20:14:18.705Z,8.93
2022-09-28T20:16:48.333Z,8.73
2022-09-28T20:19:15.135Z,9.13
2022-09-28T20:21:41.876Z,7.55
2022-09-28T20:24:11.433Z,8.20
2022-09-28T20:26:38.159Z,8.65
2022-09-28T20:29:06.673Z,12.52
2022-09-28T20:31:36.293Z,9.88
2022-09-28T20:34:04.238Z,10.57
2022-09-28T20:36:33.948Z,9.30
2022-09-28T20:39:04.313Z,8.63
2022-09-28T20:41:36.801Z,8.75
2022-09-28T20:44:06.136Z,9.48
2022-09-28T20:46:34.812Z,10.32
2022-09-28T20:49:01.838Z,9.88
2022-09-28T20:51:28.661Z,10.00
2022-09-28T20:53:57.275Z,8.75
2022-09-28T20:56:37.581Z,10.00
2022-09-28T20:59:10.316Z,8.48
2022-09-28T21:01:37.742Z,7.80
2022-09-28T21:04:06.638Z,10.88
2022-09-28T21:06:35.951Z,10.38
2022-09-28T21:09:03.689Z,12.07
2022-09-28T21:11:30.885Z,13.32
2022-09-28T21:13:59.694Z,10.70
2022-09-28T21:16:28.321Z,9.75
2022-09-28T21:18:55.155Z,9.00
2022-09-28T21:21:23.277Z,10.25
2022-09-28T21:23:57.018Z,10.45
2022-09-28T21:26:26.298Z,10.50
2022-09-28T21:29:01.044Z,10.25
2022-09-28T21:31:30.773Z,9.63
2022-09-28T21:33:57.835Z,9.18
2022-09-28T21:36:25.513Z,8.82
2022-09-28T21:38:53.441Z,10.00
2022-09-28T21:41:20.140Z,17.48
2022-09-28T21:43:46.782Z,36.63
2022-09-28T21:46:13.527Z,13.30
2022-09-28T21:48:40.284Z,15.23
2022-09-28T21:51:09.160Z,13.95
2022-09-28T21:53:37.594Z,15.48
2022-09-28T21:56:07.245Z,13.70
2022-09-28T21:58:35.385Z,16.05
2022-09-28T22:01:13.107Z,16.67
2022-09-28T22:03:40.225Z,15.35
2022-09-28T22:06:07.998Z,13.48
2022-09-28T22:08:35.786Z,13.77
2022-09-28T22:11:14.093Z,12.35
2022-09-28T22:13:46.660Z,14.10
2022-09-28T22:16:15.015Z,13.25
2022-09-28T22:18:41.924Z,12.10
2022-09-28T22:21:12.353Z,11.20
2022-09-28T22:23:39.831Z,10.80
2022-09-28T22:26:19.981Z,10.82
2022-09-28T22:28:52.600Z,10.18
2022-09-28T22:31:22.805Z,8.95
2022-09-28T22:33:50.008Z,8.43
2022-09-28T22:36:17.066Z,10.05
2022-09-28T22:38:45.009Z,8.82
2022-09-28T22:41:12.750Z,10.73
2022-09-28T22:43:39.418Z,10.23
2022-09-28T22:46:11.122Z,12.23
2022-09-28T22:48:37.857Z,9.80
2022-09-28T22:51:06.354Z,9.77
2022-09-28T22:53:34.394Z,10.07
2022-09-28T22:56:04.022Z,9.63
2022-09-28T22:58:31.238Z,8.90
